sensor_id;sensor_type;location;lat;lon;timestamp;temperature;humidity
22795;DHT22;11564;50.920;11.612;2023-09-07T00:00:42;12.40;99.90
22795;DHT22;11564;50.920;11.612;2023-09-07T00:03:07;12.40;99.90
22795;DHT22;11564;50.920;11.612;2023-09-07T00:05:33;12.30;99.90
22795;DHT22;11564;50.920;11.612;2023-09-07T00:07:59;12.30;99.90
22795;DHT22;11564;50.920;11.612;2023-09-07T00:10:25;12.30;99.90
22795;DHT22;11564;50.920;11.612;2023-09-07T00:12:51;12.30;99.90
22795;DHT22;11564;50.920;11.612;2023-09-07T00:15:16;12.20;99.90
22795;DHT22;11564;50.920;11.612;2023-09-07T00:17:44;12.20;99.90
22795;DHT22;11564;50.920;11.612;2023-09-07T00:20:10;12.20;99.90
22795;DHT22;11564;50.920;11.612;2023-09-07T00:22:36;12.20;99.90
22795;DHT22;11564;50.920;11.612;2023-09-07T00:25:02;12.20;99.90
22795;DHT22;11564;50.920;11.612;2023-09-07T00:27:29;12.10;99.90
22795;DHT22;11564;50.920;11.612;2023-09-07T00:29:54;12.10;99.90
22795;DHT22;11564;50.920;11.612;2023-09-07T00:32:20;12.10;99.90
22795;DHT22;11564;50.920;11.612;2023-09-07T00:34:45;12.10;99.90
22795;DHT22;11564;50.920;11.612;2023-09-07T00:37:11;12.00;99.90
22795;DHT22;11564;50.920;11.612;2023-09-07T00:39:37;12.00;99.90
22795;DHT22;11564;50.920;11.612;2023-09-07T00:42:03;12.00;99.90
22795;DHT22;11564;50.920;11.612;2023-09-07T00:44:28;12.00;99.90
22795;DHT22;11564;50.920;11.612;2023-09-07T00:46:54;12.00;99.90
22795;DHT22;11564;50.920;11.612;2023-09-07T00:49:20;11.90;99.90
22795;DHT22;11564;50.920;11.612;2023-09-07T00:51:46;11.90;99.90
22795;DHT22;11564;50.920;11.612;2023-09-07T00:54:11;11.90;99.90
22795;DHT22;11564;50.920;11.612;2023-09-07T00:56:37;11.90;99.90
22795;DHT22;11564;50.920;11.612;2023-09-07T00:59:02;11.80;99.90
22795;DHT22;11564;50.920;11.612;2023-09-07T01:01:29;11.80;99.90
22795;DHT22;11564;50.920;11.612;2023-09-07T01:03:56;11.80;99.90
22795;DHT22;11564;50.920;11.612;2023-09-07T01:06:22;11.80;99.90
22795;DHT22;11564;50.920;11.612;2023-09-07T01:08:52;11.80;99.90
22795;DHT22;11564;50.920;11.612;2023-09-07T01:11:21;11.80;99.90
22795;DHT22;11564;50.920;11.612;2023-09-07T01:13:48;11.70;99.90
22795;DHT22;11564;50.920;11.612;2023-09-07T01:16:14;11.70;99.90
22795;DHT22;11564;50.920;11.612;2023-09-07T01:18:39;11.70;99.90
22795;DHT22;11564;50.920;11.612;2023-09-07T01:21:08;11.70;99.90
22795;DHT22;11564;50.920;11.612;2023-09-07T01:23:35;11.60;99.90
22795;DHT22;11564;50.920;11.612;2023-09-07T01:26:08;11.50;99.90
22795;DHT22;11564;50.920;11.612;2023-09-07T01:28:35;11.50;99.90
22795;DHT22;11564;50.920;11.612;2023-09-07T01:31:00;11.50;99.90
22795;DHT22;11564;50.920;11.612;2023-09-07T01:33:26;11.50;99.90
22795;DHT22;11564;50.920;11.612;2023-09-07T01:35:52;11.40;99.90
22795;DHT22;11564;50.920;11.612;2023-09-07T01:38:17;11.40;99.90
22795;DHT22;11564;50.920;11.612;2023-09-07T01:40:43;11.40;99.90
22795;DHT22;11564;50.920;11.612;2023-09-07T01:43:08;11.40;99.90
22795;DHT22;11564;50.920;11.612;2023-09-07T01:45:34;11.40;99.90
22795;DHT22;11564;50.920;11.612;2023-09-07T01:47:59;11.40;99.90
22795;DHT22;11564;50.920;11.612;2023-09-07T01:50:25;11.40;99.90
22795;DHT22;11564;50.920;11.612;2023-09-07T01:52:53;11.30;99.90
22795;DHT22;11564;50.920;11.612;2023-09-07T01:55:19;11.30;99.90
22795;DHT22;11564;50.920;11.612;2023-09-07T01:57:44;11.30;99.90
22795;DHT22;11564;50.920;11.612;2023-09-07T02:00:10;11.20;99.90
22795;DHT22;11564;50.920;11.612;2023-09-07T02:02:36;11.20;99.90
22795;DHT22;11564;50.920;11.612;2023-09-07T02:05:02;11.20;99.90
22795;DHT22;11564;50.920;11.612;2023-09-07T02:07:27;11.20;99.90
22795;DHT22;11564;50.920;11.612;2023-09-07T02:09:53;11.10;99.90
22795;DHT22;11564;50.920;11.612;2023-09-07T02:12:18;11.10;99.90
22795;DHT22;11564;50.920;11.612;2023-09-07T02:14:44;11.10;99.90
22795;DHT22;11564;50.920;11.612;2023-09-07T02:17:09;11.10;99.90
22795;DHT22;11564;50.920;11.612;2023-09-07T02:19:35;11.10;99.90
22795;DHT22;11564;50.920;11.612;2023-09-07T02:22:00;11.10;99.90
22795;DHT22;11564;50.920;11.612;2023-09-07T02:24:26;11.00;99.90
22795;DHT22;11564;50.920;11.612;2023-09-07T02:26:51;11.00;99.90
22795;DHT22;11564;50.920;11.612;2023-09-07T02:29:17;11.00;99.90
22795;DHT22;11564;50.920;11.612;2023-09-07T02:37:21;11.00;99.90
22795;DHT22;11564;50.920;11.612;2023-09-07T02:39:46;11.00;99.90
22795;DHT22;11564;50.920;11.612;2023-09-07T02:42:12;11.00;99.90
22795;DHT22;11564;50.920;11.612;2023-09-07T02:44:37;10.90;99.90
22795;DHT22;11564;50.920;11.612;2023-09-07T02:47:03;10.90;99.90
22795;DHT22;11564;50.920;11.612;2023-09-07T02:49:29;10.90;99.90
22795;DHT22;11564;50.920;11.612;2023-09-07T02:51:54;10.90;99.90
22795;DHT22;11564;50.920;11.612;2023-09-07T02:54:20;10.80;99.90
22795;DHT22;11564;50.920;11.612;2023-09-07T02:56:45;10.90;99.90
22795;DHT22;11564;50.920;11.612;2023-09-07T02:59:11;10.90;99.90
22795;DHT22;11564;50.920;11.612;2023-09-07T03:01:38;10.80;99.90
22795;DHT22;11564;50.920;11.612;2023-09-07T03:04:04;10.80;99.90
22795;DHT22;11564;50.920;11.612;2023-09-07T03:06:30;10.80;99.90
22795;DHT22;11564;50.920;11.612;2023-09-07T03:08:55;10.80;99.90
22795;DHT22;11564;50.920;11.612;2023-09-07T03:11:22;10.80;99.90
22795;DHT22;11564;50.920;11.612;2023-09-07T03:13:47;10.70;99.90
22795;DHT22;11564;50.920;11.612;2023-09-07T03:16:13;10.70;99.90
22795;DHT22;11564;50.920;11.612;2023-09-07T03:18:38;10.70;99.90
22795;DHT22;11564;50.920;11.612;2023-09-07T03:21:04;10.70;99.90
22795;DHT22;11564;50.920;11.612;2023-09-07T03:23:30;10.70;99.90
22795;DHT22;11564;50.920;11.612;2023-09-07T03:25:56;10.60;99.90
22795;DHT22;11564;50.920;11.612;2023-09-07T03:28:22;10.60;99.90
22795;DHT22;11564;50.920;11.612;2023-09-07T03:30:47;10.60;99.90
22795;DHT22;11564;50.920;11.612;2023-09-07T03:33:13;10.60;99.90
22795;DHT22;11564;50.920;11.612;2023-09-07T03:35:38;10.50;99.90
22795;DHT22;11564;50.920;11.612;2023-09-07T03:38:06;10.50;99.90
22795;DHT22;11564;50.920;11.612;2023-09-07T03:40:31;10.50;99.90
22795;DHT22;11564;50.920;11.612;2023-09-07T03:42:57;10.50;99.90
22795;DHT22;11564;50.920;11.612;2023-09-07T03:45:22;10.50;99.90
22795;DHT22;11564;50.920;11.612;2023-09-07T03:47:48;10.50;99.90
22795;DHT22;11564;50.920;11.612;2023-09-07T03:50:13;10.40;99.90
22795;DHT22;11564;50.920;11.612;2023-09-07T03:52:39;10.40;99.90
22795;DHT22;11564;50.920;11.612;2023-09-07T03:55:04;10.40;99.90
22795;DHT22;11564;50.920;11.612;2023-09-07T03:57:30;10.30;99.90
22795;DHT22;11564;50.920;11.612;2023-09-07T03:59:56;10.30;99.90
22795;DHT22;11564;50.920;11.612;2023-09-07T04:02:22;10.30;99.90
22795;DHT22;11564;50.920;11.612;2023-09-07T04:04:48;10.20;99.90
22795;DHT22;11564;50.920;11.612;2023-09-07T04:07:14;10.20;99.90
22795;DHT22;11564;50.920;11.612;2023-09-07T04:09:40;10.20;99.90
22795;DHT22;11564;50.920;11.612;2023-09-07T04:12:05;10.10;99.90
22795;DHT22;11564;50.920;11.612;2023-09-07T04:14:31;10.10;99.90
22795;DHT22;11564;50.920;11.612;2023-09-07T04:16:57;10.10;99.90
22795;DHT22;11564;50.920;11.612;2023-09-07T04:19:23;10.10;99.90
22795;DHT22;11564;50.920;11.612;2023-09-07T04:21:48;10.10;99.90
22795;DHT22;11564;50.920;11.612;2023-09-07T04:24:14;10.10;99.90
22795;DHT22;11564;50.920;11.612;2023-09-07T04:26:39;10.00;99.90
22795;DHT22;11564;50.920;11.612;2023-09-07T04:29:06;10.00;99.90
22795;DHT22;11564;50.920;11.612;2023-09-07T04:31:31;10.00;99.90
22795;DHT22;11564;50.920;11.612;2023-09-07T04:33:57;10.00;99.90
22795;DHT22;11564;50.920;11.612;2023-09-07T04:36:22;10.00;99.90
22795;DHT22;11564;50.920;11.612;2023-09-07T04:38:48;10.00;99.90
22795;DHT22;11564;50.920;11.612;2023-09-07T04:41:14;9.90;99.90
22795;DHT22;11564;50.920;11.612;2023-09-07T04:43:40;9.90;99.90
22795;DHT22;11564;50.920;11.612;2023-09-07T04:46:08;9.90;99.90
22795;DHT22;11564;50.920;11.612;2023-09-07T04:48:34;9.90;99.90
22795;DHT22;11564;50.920;11.612;2023-09-07T04:51:00;9.90;99.90
22795;DHT22;11564;50.920;11.612;2023-09-07T04:53:26;10.00;99.90
22795;DHT22;11564;50.920;11.612;2023-09-07T04:55:52;9.90;99.90
22795;DHT22;11564;50.920;11.612;2023-09-07T04:58:17;9.90;99.90
22795;DHT22;11564;50.920;11.612;2023-09-07T05:00:43;10.00;99.90
22795;DHT22;11564;50.920;11.612;2023-09-07T05:03:08;10.00;99.90
22795;DHT22;11564;50.920;11.612;2023-09-07T05:05:34;10.00;99.90
22795;DHT22;11564;50.920;11.612;2023-09-07T05:07:59;10.00;99.90
22795;DHT22;11564;50.920;11.612;2023-09-07T05:10:25;10.00;99.90
22795;DHT22;11564;50.920;11.612;2023-09-07T05:12:50;10.00;99.90
22795;DHT22;11564;50.920;11.612;2023-09-07T05:15:16;10.10;99.90
22795;DHT22;11564;50.920;11.612;2023-09-07T05:17:42;10.10;99.90
22795;DHT22;11564;50.920;11.612;2023-09-07T05:20:08;10.20;99.90
22795;DHT22;11564;50.920;11.612;2023-09-07T05:22:34;10.20;99.90
22795;DHT22;11564;50.920;11.612;2023-09-07T05:25:02;10.20;99.90
22795;DHT22;11564;50.920;11.612;2023-09-07T05:27:28;10.20;99.90
22795;DHT22;11564;50.920;11.612;2023-09-07T05:29:54;10.30;99.90
22795;DHT22;11564;50.920;11.612;2023-09-07T05:32:19;10.30;99.90
22795;DHT22;11564;50.920;11.612;2023-09-07T05:34:44;10.40;99.90
22795;DHT22;11564;50.920;11.612;2023-09-07T05:37:10;10.40;99.90
22795;DHT22;11564;50.920;11.612;2023-09-07T05:39:35;10.50;99.90
22795;DHT22;11564;50.920;11.612;2023-09-07T05:42:01;10.60;99.90
22795;DHT22;11564;50.920;11.612;2023-09-07T05:44:26;10.70;99.90
22795;DHT22;11564;50.920;11.612;2023-09-07T05:46:52;10.70;99.90
22795;DHT22;11564;50.920;11.612;2023-09-07T05:49:18;10.80;99.90
22795;DHT22;11564;50.920;11.612;2023-09-07T05:51:43;10.90;99.90
22795;DHT22;11564;50.920;11.612;2023-09-07T05:54:09;10.90;99.90
22795;DHT22;11564;50.920;11.612;2023-09-07T05:56:34;11.00;99.90
22795;DHT22;11564;50.920;11.612;2023-09-07T05:59:00;11.10;99.90
22795;DHT22;11564;50.920;11.612;2023-09-07T06:01:25;11.20;99.90
22795;DHT22;11564;50.920;11.612;2023-09-07T06:03:51;11.30;99.90
22795;DHT22;11564;50.920;11.612;2023-09-07T06:06:16;11.30;99.90
22795;DHT22;11564;50.920;11.612;2023-09-07T06:08:42;11.40;99.90
22795;DHT22;11564;50.920;11.612;2023-09-07T06:11:07;11.50;99.90
22795;DHT22;11564;50.920;11.612;2023-09-07T06:13:33;11.70;99.90
22795;DHT22;11564;50.920;11.612;2023-09-07T06:15:58;11.80;99.90
22795;DHT22;11564;50.920;11.612;2023-09-07T06:18:25;11.90;99.90
22795;DHT22;11564;50.920;11.612;2023-09-07T06:20:51;12.00;99.90
22795;DHT22;11564;50.920;11.612;2023-09-07T06:23:16;12.10;99.90
22795;DHT22;11564;50.920;11.612;2023-09-07T06:25:42;12.20;99.90
22795;DHT22;11564;50.920;11.612;2023-09-07T06:28:07;12.30;99.90
22795;DHT22;11564;50.920;11.612;2023-09-07T06:30:33;12.40;99.90
22795;DHT22;11564;50.920;11.612;2023-09-07T06:32:59;12.50;99.90
22795;DHT22;11564;50.920;11.612;2023-09-07T06:35:24;12.60;99.90
22795;DHT22;11564;50.920;11.612;2023-09-07T06:37:50;12.70;99.90
22795;DHT22;11564;50.920;11.612;2023-09-07T06:40:15;12.80;99.90
22795;DHT22;11564;50.920;11.612;2023-09-07T06:42:43;12.90;99.90
22795;DHT22;11564;50.920;11.612;2023-09-07T06:45:08;13.00;99.90
22795;DHT22;11564;50.920;11.612;2023-09-07T06:47:35;13.10;99.90
22795;DHT22;11564;50.920;11.612;2023-09-07T06:50:01;13.20;99.90
22795;DHT22;11564;50.920;11.612;2023-09-07T06:52:26;13.40;99.90
22795;DHT22;11564;50.920;11.612;2023-09-07T06:54:52;13.50;99.90
22795;DHT22;11564;50.920;11.612;2023-09-07T06:57:18;13.60;99.90
22795;DHT22;11564;50.920;11.612;2023-09-07T06:59:44;13.70;99.90
22795;DHT22;11564;50.920;11.612;2023-09-07T07:02:09;13.80;99.90
22795;DHT22;11564;50.920;11.612;2023-09-07T07:04:35;13.90;99.90
22795;DHT22;11564;50.920;11.612;2023-09-07T07:07:00;14.00;99.90
22795;DHT22;11564;50.920;11.612;2023-09-07T07:09:32;14.10;99.90
22795;DHT22;11564;50.920;11.612;2023-09-07T07:11:59;14.30;99.90
22795;DHT22;11564;50.920;11.612;2023-09-07T07:14:26;14.40;99.90
22795;DHT22;11564;50.920;11.612;2023-09-07T07:16:52;14.60;99.90
22795;DHT22;11564;50.920;11.612;2023-09-07T07:19:17;14.70;99.90
22795;DHT22;11564;50.920;11.612;2023-09-07T07:21:43;14.90;99.90
22795;DHT22;11564;50.920;11.612;2023-09-07T07:24:08;15.00;99.90
22795;DHT22;11564;50.920;11.612;2023-09-07T07:26:34;15.20;99.90
22795;DHT22;11564;50.920;11.612;2023-09-07T07:28:59;15.40;99.90
22795;DHT22;11564;50.920;11.612;2023-09-07T07:31:25;15.60;99.90
22795;DHT22;11564;50.920;11.612;2023-09-07T07:33:50;15.80;99.90
22795;DHT22;11564;50.920;11.612;2023-09-07T07:36:16;16.00;99.90
22795;DHT22;11564;50.920;11.612;2023-09-07T07:38:41;16.20;99.90
22795;DHT22;11564;50.920;11.612;2023-09-07T07:41:07;16.50;99.90
22795;DHT22;11564;50.920;11.612;2023-09-07T07:43:32;16.60;99.90
22795;DHT22;11564;50.920;11.612;2023-09-07T07:45:58;16.60;99.90
22795;DHT22;11564;50.920;11.612;2023-09-07T07:48:24;16.80;99.90
22795;DHT22;11564;50.920;11.612;2023-09-07T07:50:50;16.90;99.90
22795;DHT22;11564;50.920;11.612;2023-09-07T07:53:16;17.00;99.90
22795;DHT22;11564;50.920;11.612;2023-09-07T07:55:42;17.10;99.90
22795;DHT22;11564;50.920;11.612;2023-09-07T07:58:08;17.20;99.90
22795;DHT22;11564;50.920;11.612;2023-09-07T08:00:34;17.50;99.90
22795;DHT22;11564;50.920;11.612;2023-09-07T08:03:00;17.70;99.90
22795;DHT22;11564;50.920;11.612;2023-09-07T08:05:28;17.80;99.90
22795;DHT22;11564;50.920;11.612;2023-09-07T08:07:54;18.00;99.90
22795;DHT22;11564;50.920;11.612;2023-09-07T08:10:19;18.10;99.90
22795;DHT22;11564;50.920;11.612;2023-09-07T08:12:45;18.20;99.90
22795;DHT22;11564;50.920;11.612;2023-09-07T08:15:10;18.20;99.90
22795;DHT22;11564;50.920;11.612;2023-09-07T08:17:36;18.30;99.90
22795;DHT22;11564;50.920;11.612;2023-09-07T08:20:01;18.60;99.90
22795;DHT22;11564;50.920;11.612;2023-09-07T08:22:28;18.80;99.90
22795;DHT22;11564;50.920;11.612;2023-09-07T08:24:54;18.90;99.90
22795;DHT22;11564;50.920;11.612;2023-09-07T08:27:20;19.00;99.90
22795;DHT22;11564;50.920;11.612;2023-09-07T08:29:46;19.20;99.90
22795;DHT22;11564;50.920;11.612;2023-09-07T08:32:17;19.40;99.90
22795;DHT22;11564;50.920;11.612;2023-09-07T08:34:42;19.70;99.90
22795;DHT22;11564;50.920;11.612;2023-09-07T08:37:08;19.70;99.90
22795;DHT22;11564;50.920;11.612;2023-09-07T08:39:36;19.80;99.90
22795;DHT22;11564;50.920;11.612;2023-09-07T08:42:04;20.00;99.90
22795;DHT22;11564;50.920;11.612;2023-09-07T08:44:30;20.20;99.90
22795;DHT22;11564;50.920;11.612;2023-09-07T08:46:57;20.30;99.90
22795;DHT22;11564;50.920;11.612;2023-09-07T08:49:25;20.40;99.90
22795;DHT22;11564;50.920;11.612;2023-09-07T08:51:51;20.40;99.90
22795;DHT22;11564;50.920;11.612;2023-09-07T08:54:17;20.40;99.90
22795;DHT22;11564;50.920;11.612;2023-09-07T08:56:44;20.60;99.90
22795;DHT22;11564;50.920;11.612;2023-09-07T08:59:10;20.60;99.90
22795;DHT22;11564;50.920;11.612;2023-09-07T09:01:35;20.80;99.90
22795;DHT22;11564;50.920;11.612;2023-09-07T09:04:02;20.90;99.90
22795;DHT22;11564;50.920;11.612;2023-09-07T09:06:28;21.10;99.90
22795;DHT22;11564;50.920;11.612;2023-09-07T09:08:55;21.10;99.90
22795;DHT22;11564;50.920;11.612;2023-09-07T09:11:21;21.20;99.90
22795;DHT22;11564;50.920;11.612;2023-09-07T09:13:47;21.50;99.90
22795;DHT22;11564;50.920;11.612;2023-09-07T09:16:13;21.70;99.90
22795;DHT22;11564;50.920;11.612;2023-09-07T09:21:14;21.80;99.90
22795;DHT22;11564;50.920;11.612;2023-09-07T09:23:39;21.80;99.90
22795;DHT22;11564;50.920;11.612;2023-09-07T09:26:05;21.80;99.90
22795;DHT22;11564;50.920;11.612;2023-09-07T09:28:31;22.00;99.90
22795;DHT22;11564;50.920;11.612;2023-09-07T09:31:00;22.30;99.90
22795;DHT22;11564;50.920;11.612;2023-09-07T09:33:26;22.50;99.90
22795;DHT22;11564;50.920;11.612;2023-09-07T09:35:53;22.80;99.90
22795;DHT22;11564;50.920;11.612;2023-09-07T09:38:19;23.00;99.90
22795;DHT22;11564;50.920;11.612;2023-09-07T09:40:44;23.00;99.90
22795;DHT22;11564;50.920;11.612;2023-09-07T09:43:11;23.10;99.90
22795;DHT22;11564;50.920;11.612;2023-09-07T09:45:37;23.20;99.90
22795;DHT22;11564;50.920;11.612;2023-09-07T09:48:03;23.30;99.90
22795;DHT22;11564;50.920;11.612;2023-09-07T09:50:30;23.70;99.90
22795;DHT22;11564;50.920;11.612;2023-09-07T09:52:55;23.60;99.90
22795;DHT22;11564;50.920;11.612;2023-09-07T09:55:21;23.60;99.90
22795;DHT22;11564;50.920;11.612;2023-09-07T09:57:47;23.70;99.90
22795;DHT22;11564;50.920;11.612;2023-09-07T10:00:12;23.80;99.50
22795;DHT22;11564;50.920;11.612;2023-09-07T10:02:55;24.00;99.90
22795;DHT22;11564;50.920;11.612;2023-09-07T10:05:23;24.20;98.90
22795;DHT22;11564;50.920;11.612;2023-09-07T10:07:49;24.30;99.00
22795;DHT22;11564;50.920;11.612;2023-09-07T10:10:15;24.20;98.70
22795;DHT22;11564;50.920;11.612;2023-09-07T10:12:43;24.40;99.00
22795;DHT22;11564;50.920;11.612;2023-09-07T10:15:21;24.60;99.40
22795;DHT22;11564;50.920;11.612;2023-09-07T10:17:47;24.50;97.50
22795;DHT22;11564;50.920;11.612;2023-09-07T10:20:18;24.60;97.40
22795;DHT22;11564;50.920;11.612;2023-09-07T10:22:46;24.50;96.80
22795;DHT22;11564;50.920;11.612;2023-09-07T10:25:21;24.70;97.10
22795;DHT22;11564;50.920;11.612;2023-09-07T10:27:47;25.00;97.10
22795;DHT22;11564;50.920;11.612;2023-09-07T10:30:13;25.20;95.70
22795;DHT22;11564;50.920;11.612;2023-09-07T10:32:39;25.50;96.50
22795;DHT22;11564;50.920;11.612;2023-09-07T10:35:13;25.70;94.80
22795;DHT22;11564;50.920;11.612;2023-09-07T10:37:38;25.80;94.70
22795;DHT22;11564;50.920;11.612;2023-09-07T10:40:04;25.70;94.40
22795;DHT22;11564;50.920;11.612;2023-09-07T10:42:35;25.90;93.80
22795;DHT22;11564;50.920;11.612;2023-09-07T10:45:08;26.10;93.60
22795;DHT22;11564;50.920;11.612;2023-09-07T10:47:33;26.20;94.00
22795;DHT22;11564;50.920;11.612;2023-09-07T10:49:59;26.60;94.30
22795;DHT22;11564;50.920;11.612;2023-09-07T10:52:25;26.80;92.80
22795;DHT22;11564;50.920;11.612;2023-09-07T10:54:56;26.90;92.40
22795;DHT22;11564;50.920;11.612;2023-09-07T10:57:22;27.00;90.60
22795;DHT22;11564;50.920;11.612;2023-09-07T10:59:48;27.00;92.20
22795;DHT22;11564;50.920;11.612;2023-09-07T11:02:14;27.30;93.10
22795;DHT22;11564;50.920;11.612;2023-09-07T11:04:40;27.50;92.20
22795;DHT22;11564;50.920;11.612;2023-09-07T11:07:06;27.60;90.00
22795;DHT22;11564;50.920;11.612;2023-09-07T11:09:31;27.90;90.50
22795;DHT22;11564;50.920;11.612;2023-09-07T11:12:03;28.00;87.60
22795;DHT22;11564;50.920;11.612;2023-09-07T11:14:29;28.30;86.30
22795;DHT22;11564;50.920;11.612;2023-09-07T11:16:55;28.50;86.30
22795;DHT22;11564;50.920;11.612;2023-09-07T11:19:21;28.70;84.40
22795;DHT22;11564;50.920;11.612;2023-09-07T11:21:47;28.90;79.90
22795;DHT22;11564;50.920;11.612;2023-09-07T11:24:12;29.00;79.30
22795;DHT22;11564;50.920;11.612;2023-09-07T11:26:44;29.10;80.30
22795;DHT22;11564;50.920;11.612;2023-09-07T11:29:13;29.20;76.60
22795;DHT22;11564;50.920;11.612;2023-09-07T11:31:39;29.20;77.10
22795;DHT22;11564;50.920;11.612;2023-09-07T11:34:08;29.20;75.90
22795;DHT22;11564;50.920;11.612;2023-09-07T11:36:34;29.30;76.20
22795;DHT22;11564;50.920;11.612;2023-09-07T11:38:59;29.50;75.50
22795;DHT22;11564;50.920;11.612;2023-09-07T11:41:25;29.60;75.20
22795;DHT22;11564;50.920;11.612;2023-09-07T11:43:50;29.80;73.20
22795;DHT22;11564;50.920;11.612;2023-09-07T11:46:16;29.80;76.50
22795;DHT22;11564;50.920;11.612;2023-09-07T11:48:41;30.00;75.90
22795;DHT22;11564;50.920;11.612;2023-09-07T11:51:07;30.00;74.50
22795;DHT22;11564;50.920;11.612;2023-09-07T11:53:34;30.10;74.00
22795;DHT22;11564;50.920;11.612;2023-09-07T11:55:59;30.30;72.30
22795;DHT22;11564;50.920;11.612;2023-09-07T11:58:25;30.20;71.70
22795;DHT22;11564;50.920;11.612;2023-09-07T12:00:52;30.30;74.80
22795;DHT22;11564;50.920;11.612;2023-09-07T12:03:17;30.30;73.60
22795;DHT22;11564;50.920;11.612;2023-09-07T12:05:43;30.40;70.20
22795;DHT22;11564;50.920;11.612;2023-09-07T12:08:09;30.50;73.20
22795;DHT22;11564;50.920;11.612;2023-09-07T12:10:35;30.70;70.30
22795;DHT22;11564;50.920;11.612;2023-09-07T12:13:00;30.70;73.10
22795;DHT22;11564;50.920;11.612;2023-09-07T12:15:26;30.80;74.10
22795;DHT22;11564;50.920;11.612;2023-09-07T12:17:51;31.00;70.70
22795;DHT22;11564;50.920;11.612;2023-09-07T12:20:19;31.00;73.60
22795;DHT22;11564;50.920;11.612;2023-09-07T12:22:45;30.90;71.60
22795;DHT22;11564;50.920;11.612;2023-09-07T12:25:10;31.00;70.90
22795;DHT22;11564;50.920;11.612;2023-09-07T12:27:36;31.20;68.70
22795;DHT22;11564;50.920;11.612;2023-09-07T12:30:02;31.30;69.40
22795;DHT22;11564;50.920;11.612;2023-09-07T12:32:28;31.40;71.60
22795;DHT22;11564;50.920;11.612;2023-09-07T12:34:53;31.40;70.00
22795;DHT22;11564;50.920;11.612;2023-09-07T12:37:19;31.40;66.10
22795;DHT22;11564;50.920;11.612;2023-09-07T12:39:49;31.60;65.30
22795;DHT22;11564;50.920;11.612;2023-09-07T12:42:14;31.70;67.00
22795;DHT22;11564;50.920;11.612;2023-09-07T12:44:40;31.60;66.70
22795;DHT22;11564;50.920;11.612;2023-09-07T12:47:05;31.90;66.30
22795;DHT22;11564;50.920;11.612;2023-09-07T12:49:31;32.00;66.20
22795;DHT22;11564;50.920;11.612;2023-09-07T12:51:56;32.20;68.80
22795;DHT22;11564;50.920;11.612;2023-09-07T12:54:22;32.80;65.00
22795;DHT22;11564;50.920;11.612;2023-09-07T12:56:47;34.10;65.70
22795;DHT22;11564;50.920;11.612;2023-09-07T12:59:13;36.80;58.40
22795;DHT22;11564;50.920;11.612;2023-09-07T13:01:38;40.30;55.60
22795;DHT22;11564;50.920;11.612;2023-09-07T13:04:04;43.50;48.20
22795;DHT22;11564;50.920;11.612;2023-09-07T13:06:29;45.80;45.10
22795;DHT22;11564;50.920;11.612;2023-09-07T13:08:55;47.70;42.50
22795;DHT22;11564;50.920;11.612;2023-09-07T13:11:20;48.60;38.80
22795;DHT22;11564;50.920;11.612;2023-09-07T13:13:46;49.40;37.80
22795;DHT22;11564;50.920;11.612;2023-09-07T13:16:11;50.50;37.00
22795;DHT22;11564;50.920;11.612;2023-09-07T13:18:37;51.60;35.60
22795;DHT22;11564;50.920;11.612;2023-09-07T13:21:03;51.70;33.80
22795;DHT22;11564;50.920;11.612;2023-09-07T13:23:29;51.80;34.10
22795;DHT22;11564;50.920;11.612;2023-09-07T13:25:55;51.70;34.80
22795;DHT22;11564;50.920;11.612;2023-09-07T13:28:21;51.60;33.70
22795;DHT22;11564;50.920;11.612;2023-09-07T13:30:47;51.90;33.50
22795;DHT22;11564;50.920;11.612;2023-09-07T13:33:12;52.80;32.70
22795;DHT22;11564;50.920;11.612;2023-09-07T13:35:38;53.70;31.90
22795;DHT22;11564;50.920;11.612;2023-09-07T13:38:04;54.30;31.00
22795;DHT22;11564;50.920;11.612;2023-09-07T13:40:30;54.50;30.00
22795;DHT22;11564;50.920;11.612;2023-09-07T13:42:55;54.90;30.00
22795;DHT22;11564;50.920;11.612;2023-09-07T13:45:21;54.60;30.10
22795;DHT22;11564;50.920;11.612;2023-09-07T13:47:47;55.10;29.80
22795;DHT22;11564;50.920;11.612;2023-09-07T13:50:13;55.30;30.50
22795;DHT22;11564;50.920;11.612;2023-09-07T13:52:38;55.00;29.60
22795;DHT22;11564;50.920;11.612;2023-09-07T13:55:05;55.20;28.50
22795;DHT22;11564;50.920;11.612;2023-09-07T13:57:32;54.80;29.20
22795;DHT22;11564;50.920;11.612;2023-09-07T13:59:57;55.60;28.60
22795;DHT22;11564;50.920;11.612;2023-09-07T14:02:23;55.20;28.10
22795;DHT22;11564;50.920;11.612;2023-09-07T14:04:48;54.90;28.60
22795;DHT22;11564;50.920;11.612;2023-09-07T14:07:15;55.50;28.90
22795;DHT22;11564;50.920;11.612;2023-09-07T14:09:40;55.80;28.20
22795;DHT22;11564;50.920;11.612;2023-09-07T14:12:06;55.60;27.60
22795;DHT22;11564;50.920;11.612;2023-09-07T14:14:32;55.70;28.50
22795;DHT22;11564;50.920;11.612;2023-09-07T14:16:57;55.70;28.70
22795;DHT22;11564;50.920;11.612;2023-09-07T14:19:23;55.50;27.70
22795;DHT22;11564;50.920;11.612;2023-09-07T14:21:49;55.30;27.40
22795;DHT22;11564;50.920;11.612;2023-09-07T14:24:14;55.30;28.00
22795;DHT22;11564;50.920;11.612;2023-09-07T14:26:40;54.80;27.30
22795;DHT22;11564;50.920;11.612;2023-09-07T14:29:05;55.00;28.20
22795;DHT22;11564;50.920;11.612;2023-09-07T14:31:31;55.10;28.00
22795;DHT22;11564;50.920;11.612;2023-09-07T14:33:56;56.00;27.30
22795;DHT22;11564;50.920;11.612;2023-09-07T14:36:22;55.60;27.70
22795;DHT22;11564;50.920;11.612;2023-09-07T14:38:47;54.60;28.40
22795;DHT22;11564;50.920;11.612;2023-09-07T14:41:13;55.20;28.10
22795;DHT22;11564;50.920;11.612;2023-09-07T14:43:45;55.50;27.80
22795;DHT22;11564;50.920;11.612;2023-09-07T14:46:11;55.70;27.50
22795;DHT22;11564;50.920;11.612;2023-09-07T14:48:36;55.40;27.40
22795;DHT22;11564;50.920;11.612;2023-09-07T14:51:02;55.60;27.00
22795;DHT22;11564;50.920;11.612;2023-09-07T14:53:27;54.90;28.10
22795;DHT22;11564;50.920;11.612;2023-09-07T14:55:53;55.10;27.20
22795;DHT22;11564;50.920;11.612;2023-09-07T14:58:18;55.50;27.30
22795;DHT22;11564;50.920;11.612;2023-09-07T15:00:44;54.40;27.10
22795;DHT22;11564;50.920;11.612;2023-09-07T15:03:09;55.00;28.40
22795;DHT22;11564;50.920;11.612;2023-09-07T15:05:35;55.10;27.70
22795;DHT22;11564;50.920;11.612;2023-09-07T15:08:00;54.50;27.80
22795;DHT22;11564;50.920;11.612;2023-09-07T15:10:28;54.30;27.30
22795;DHT22;11564;50.920;11.612;2023-09-07T15:12:54;54.50;27.30
22795;DHT22;11564;50.920;11.612;2023-09-07T15:15:20;54.50;27.40
22795;DHT22;11564;50.920;11.612;2023-09-07T15:17:48;54.50;27.80